createdAt,value
2019-03-30T00:01:50.543Z,6.07
2019-03-30T00:04:22.540Z,6.87
2019-03-30T00:06:54.533Z,6.20
2019-03-30T00:09:26.580Z,7.10
2019-03-30T00:11:58.634Z,7.03
2019-03-30T00:14:30.837Z,7.20
2019-03-30T00:17:06.123Z,7.27
2019-03-30T00:19:38.091Z,8.20
2019-03-30T00:22:10.135Z,6.50
2019-03-30T00:24:42.228Z,6.60
2019-03-30T00:27:14.188Z,6.70
2019-03-30T00:29:46.159Z,7.03
2019-03-30T00:32:18.089Z,6.50
2019-03-30T00:34:51.035Z,7.43
2019-03-30T00:37:24.110Z,6.87
2019-03-30T00:39:56.122Z,7.20
2019-03-30T00:42:28.087Z,7.60
2019-03-30T00:45:00.252Z,12.00
2019-03-30T00:47:32.131Z,11.67
2019-03-30T00:50:04.176Z,13.10
2019-03-30T00:52:36.249Z,14.20
2019-03-30T00:55:08.315Z,15.10
2019-03-30T00:57:40.375Z,16.17
2019-03-30T01:00:13.894Z,17.73
2019-03-30T01:02:45.907Z,20.53
2019-03-30T01:05:18.005Z,17.43
2019-03-30T01:07:50.002Z,18.53
2019-03-30T01:10:22.218Z,17.87
2019-03-30T01:12:54.528Z,19.37
2019-03-30T01:15:26.622Z,15.13
2019-03-30T01:17:58.618Z,15.43
2019-03-30T01:20:30.654Z,16.20
2019-03-30T01:23:02.591Z,14.83
2019-03-30T01:25:34.850Z,15.60
2019-03-30T01:28:06.818Z,14.07
2019-03-30T01:30:38.795Z,15.57
2019-03-30T01:33:10.838Z,18.70
2019-03-30T01:35:42.907Z,16.13
2019-03-30T01:38:14.832Z,17.33
2019-03-30T01:40:47.278Z,16.83
2019-03-30T01:43:28.598Z,16.07
2019-03-30T01:46:00.736Z,15.17
2019-03-30T01:48:32.684Z,16.03
2019-03-30T01:51:04.688Z,17.83
2019-03-30T01:53:36.626Z,15.70
2019-03-30T01:56:08.667Z,17.43
2019-03-30T01:58:40.752Z,15.90
2019-03-30T02:01:12.727Z,16.27
2019-03-30T02:03:44.690Z,17.13
2019-03-30T02:06:16.680Z,15.70
2019-03-30T02:08:48.657Z,17.57
2019-03-30T02:11:20.601Z,15.33
2019-03-30T02:13:52.586Z,17.03
2019-03-30T02:16:24.761Z,15.80
2019-03-30T02:18:56.728Z,16.17
2019-03-30T02:21:28.846Z,15.80
2019-03-30T02:24:00.826Z,15.47
2019-03-30T02:26:32.871Z,15.30
2019-03-30T02:29:06.358Z,16.83
2019-03-30T02:31:38.427Z,18.00
2019-03-30T02:34:10.459Z,14.87
2019-03-30T02:36:42.542Z,18.30
2019-03-30T02:39:14.505Z,19.17
2019-03-30T02:41:46.562Z,17.43
2019-03-30T02:44:18.511Z,17.83
2019-03-30T02:46:50.499Z,17.83
2019-03-30T02:49:22.550Z,18.70
2019-03-30T02:51:54.491Z,18.97
2019-03-30T02:54:26.517Z,17.30
2019-03-30T02:57:01.731Z,17.97
2019-03-30T02:59:33.741Z,19.40
2019-03-30T03:02:05.689Z,17.67
2019-03-30T03:04:37.691Z,19.23
2019-03-30T03:07:11.168Z,18.90
2019-03-30T03:09:43.099Z,19.43
2019-03-30T03:12:24.180Z,19.67
2019-03-30T03:14:57.599Z,20.27
2019-03-30T03:17:29.587Z,22.27
2019-03-30T03:20:01.619Z,18.80
2019-03-30T03:22:33.889Z,19.90
2019-03-30T03:25:06.052Z,19.17
2019-03-30T03:27:38.035Z,20.97
2019-03-30T03:30:13.624Z,18.97
2019-03-30T03:32:45.313Z,18.87
2019-03-30T03:35:17.304Z,21.10
2019-03-30T03:37:49.292Z,19.60
2019-03-30T03:40:21.272Z,20.07
2019-03-30T03:42:53.283Z,21.07
2019-03-30T03:45:25.317Z,21.00
2019-03-30T03:47:57.299Z,19.77
2019-03-30T03:50:42.716Z,21.47
2019-03-30T03:53:16.988Z,22.50
2019-03-30T03:55:49.250Z,21.83
2019-03-30T03:58:24.209Z,19.93
2019-03-30T04:00:58.286Z,23.03
2019-03-30T04:03:32.441Z,22.63
2019-03-30T04:06:08.118Z,20.10
2019-03-30T04:08:41.735Z,22.70
2019-03-30T04:11:16.068Z,21.83
2019-03-30T04:13:49.785Z,23.33
2019-03-30T04:16:22.491Z,22.07
2019-03-30T04:18:54.453Z,22.73
2019-03-30T04:21:42.971Z,22.73
2019-03-30T04:24:00.099Z,22.33
2019-03-30T04:26:33.670Z,22.83
2019-03-30T04:29:05.678Z,20.20
2019-03-30T04:31:37.655Z,21.33
2019-03-30T04:34:09.631Z,22.63
2019-03-30T04:36:41.686Z,22.90
2019-03-30T04:39:13.750Z,21.87
2019-03-30T04:41:45.707Z,23.20
2019-03-30T04:44:17.687Z,21.80
2019-03-30T04:46:49.687Z,19.87
2019-03-30T04:49:21.665Z,22.33
2019-03-30T04:51:57.625Z,21.63
2019-03-30T04:54:28.672Z,21.23
2019-03-30T04:57:00.719Z,20.90
2019-03-30T04:59:32.698Z,22.70
2019-03-30T05:02:04.746Z,23.30
2019-03-30T05:04:36.690Z,21.37
2019-03-30T05:07:08.655Z,22.80
2019-03-30T05:09:40.854Z,22.67
2019-03-30T05:12:12.916Z,23.63
2019-03-30T05:14:44.907Z,21.07
2019-03-30T05:17:16.909Z,22.43
2019-03-30T05:19:48.937Z,22.73
2019-03-30T05:22:20.898Z,24.90
2019-03-30T05:24:54.877Z,24.23
2019-03-30T05:27:26.550Z,25.53
2019-03-30T05:29:58.499Z,22.23
2019-03-30T05:32:30.462Z,20.53
2019-03-30T05:35:06.261Z,19.73
2019-03-30T05:37:38.233Z,20.23
2019-03-30T05:40:10.916Z,20.80
2019-03-30T05:42:42.898Z,22.43
2019-03-30T05:45:14.960Z,24.67
2019-03-30T05:47:47.026Z,22.97
2019-03-30T05:50:20.096Z,25.40
2019-03-30T05:52:52.171Z,22.93
2019-03-30T05:55:24.247Z,23.73
2019-03-30T05:57:56.247Z,25.23
2019-03-30T06:00:28.186Z,23.97
2019-03-30T06:03:00.140Z,24.83
2019-03-30T06:05:32.052Z,25.47
2019-03-30T06:08:15.204Z,24.97
2019-03-30T06:10:41.747Z,25.20
2019-03-30T06:13:13.754Z,26.53
2019-03-30T06:15:45.804Z,24.50
2019-03-30T06:18:17.792Z,23.80
2019-03-30T06:20:49.762Z,25.07
2019-03-30T06:23:28.087Z,25.70
2019-03-30T06:26:01.154Z,24.67
2019-03-30T06:28:33.144Z,26.47
2019-03-30T06:31:05.114Z,25.37
2019-03-30T06:33:37.044Z,25.37
2019-03-30T06:36:09.044Z,25.20
2019-03-30T06:38:41.055Z,25.97
2019-03-30T06:41:13.086Z,24.23
2019-03-30T06:43:45.048Z,26.40
2019-03-30T06:46:17.013Z,25.00
2019-03-30T06:48:49.021Z,27.57
2019-03-30T06:51:21.026Z,24.87
2019-03-30T06:53:53.132Z,22.93
2019-03-30T06:56:25.230Z,24.13
2019-03-30T06:58:58.256Z,22.60
2019-03-30T07:01:31.314Z,21.70
2019-03-30T07:04:03.343Z,22.90
2019-03-30T07:06:39.378Z,23.57
2019-03-30T07:09:12.882Z,21.33
2019-03-30T07:11:47.926Z,19.73
2019-03-30T07:14:21.542Z,20.67
2019-03-30T07:16:55.798Z,21.23
2019-03-30T07:19:31.020Z,21.93
2019-03-30T07:22:05.743Z,18.93
2019-03-30T07:24:40.099Z,20.33
2019-03-30T07:27:12.154Z,19.73
2019-03-30T07:29:44.315Z,18.03
2019-03-30T07:32:16.504Z,20.63
2019-03-30T07:34:49.010Z,20.93
2019-03-30T07:37:24.591Z,19.87
2019-03-30T07:39:56.673Z,17.30
2019-03-30T07:42:32.157Z,16.83
2019-03-30T07:45:04.673Z,17.00
2019-03-30T07:47:36.894Z,16.27
2019-03-30T07:50:10.563Z,16.50
2019-03-30T07:52:42.902Z,15.63
2019-03-30T07:55:15.359Z,14.63
2019-03-30T07:57:48.019Z,13.43
2019-03-30T08:00:23.163Z,13.63
2019-03-30T08:02:55.476Z,14.60
2019-03-30T08:05:27.985Z,14.37
2019-03-30T08:08:00.209Z,13.57
2019-03-30T08:10:32.189Z,12.37
2019-03-30T08:13:04.268Z,12.43
2019-03-30T08:15:36.582Z,11.57
2019-03-30T08:18:08.993Z,11.97
2019-03-30T08:20:41.215Z,12.40
2019-03-30T08:23:13.340Z,13.07
2019-03-30T08:25:45.590Z,13.43
2019-03-30T08:28:20.151Z,11.80
2019-03-30T08:30:52.561Z,11.20
2019-03-30T08:33:24.748Z,11.87
2019-03-30T08:35:56.751Z,11.07
2019-03-30T08:38:28.963Z,13.17
2019-03-30T08:41:00.971Z,12.90
2019-03-30T08:43:33.089Z,10.73
2019-03-30T08:46:05.283Z,12.27
2019-03-30T08:48:37.675Z,12.97
2019-03-30T08:51:12.793Z,12.93
2019-03-30T08:53:54.524Z,14.00
2019-03-30T08:56:20.608Z,12.60
2019-03-30T08:58:54.257Z,13.13
2019-03-30T09:01:27.361Z,13.73
2019-03-30T09:03:59.426Z,11.97
2019-03-30T09:06:31.489Z,13.40
2019-03-30T09:09:09.038Z,10.60
2019-03-30T09:11:43.473Z,12.20
2019-03-30T09:14:14.755Z,12.13
2019-03-30T09:16:46.703Z,10.13
2019-03-30T09:19:18.635Z,11.47
2019-03-30T09:21:50.825Z,9.10
2019-03-30T09:24:26.730Z,10.40
2019-03-30T09:27:02.267Z,9.63
2019-03-30T09:29:34.271Z,9.67
2019-03-30T09:32:14.270Z,8.87
2019-03-30T09:34:39.911Z,9.50
2019-03-30T09:37:15.259Z,10.13
2019-03-30T09:39:47.404Z,9.70
2019-03-30T09:42:20.791Z,10.77
2019-03-30T09:44:54.452Z,10.03
2019-03-30T09:47:26.489Z,10.13
2019-03-30T09:50:02.066Z,10.47
2019-03-30T09:52:32.032Z,10.07
2019-03-30T09:55:04.181Z,9.60
2019-03-30T09:57:38.827Z,10.90
2019-03-30T10:00:11.730Z,10.37
2019-03-30T10:02:45.795Z,10.70
2019-03-30T10:05:17.848Z,9.90
2019-03-30T10:07:49.790Z,10.17
2019-03-30T10:10:22.045Z,10.20
2019-03-30T10:12:56.572Z,9.00
2019-03-30T10:15:28.561Z,9.97
2019-03-30T10:18:00.537Z,11.80
2019-03-30T10:20:32.578Z,11.47
2019-03-30T10:23:04.636Z,12.57
2019-03-30T10:25:36.679Z,11.17
2019-03-30T10:28:08.681Z,11.47
2019-03-30T10:30:40.750Z,11.53
2019-03-30T10:33:15.735Z,11.00
2019-03-30T10:35:47.812Z,12.07
2019-03-30T10:38:19.803Z,11.57
2019-03-30T10:40:51.843Z,11.87
2019-03-30T10:43:23.896Z,12.37
2019-03-30T10:45:55.965Z,12.23
2019-03-30T10:48:27.986Z,12.07
2019-03-30T10:50:59.970Z,11.17
2019-03-30T10:53:32.250Z,11.50
2019-03-30T10:56:04.527Z,14.03
2019-03-30T10:58:36.518Z,11.90
2019-03-30T11:01:08.801Z,12.07
2019-03-30T11:03:41.037Z,13.57
2019-03-30T11:06:13.093Z,14.40
2019-03-30T11:08:46.255Z,10.67
2019-03-30T11:11:18.310Z,12.47
2019-03-30T11:13:50.285Z,12.33
2019-03-30T11:16:22.377Z,12.80
2019-03-30T11:18:54.519Z,13.17
2019-03-30T11:21:26.624Z,12.53
2019-03-30T11:23:58.620Z,14.50
2019-03-30T11:26:32.002Z,13.53
2019-03-30T11:29:04.039Z,14.67
2019-03-30T11:31:40.157Z,13.83
2019-03-30T11:34:13.315Z,21.37
2019-03-30T11:36:46.630Z,14.93
2019-03-30T11:39:19.314Z,12.93
2019-03-30T11:41:51.265Z,19.70
2019-03-30T11:44:23.433Z,13.87
2019-03-30T11:46:55.400Z,12.77
2019-03-30T11:49:33.431Z,14.03
2019-03-30T11:52:05.420Z,15.13
2019-03-30T11:54:37.653Z,13.63
2019-03-30T11:57:09.670Z,12.70
2019-03-30T11:59:41.737Z,14.33
2019-03-30T12:02:27.035Z,13.17
2019-03-30T12:04:47.376Z,14.03
2019-03-30T12:07:19.360Z,15.07
2019-03-30T12:09:51.445Z,14.87
2019-03-30T12:12:23.614Z,12.90
2019-03-30T12:14:58.545Z,13.67
2019-03-30T12:17:33.542Z,11.97
2019-03-30T12:20:07.210Z,14.23
2019-03-30T12:22:39.449Z,11.50
2019-03-30T12:25:11.661Z,13.33
2019-03-30T12:27:45.164Z,12.67
2019-03-30T12:30:21.693Z,14.60
2019-03-30T12:32:53.788Z,12.20
2019-03-30T12:35:27.140Z,12.97
2019-03-30T12:38:00.668Z,12.87
2019-03-30T12:40:32.864Z,14.23
2019-03-30T12:43:05.014Z,12.67
2019-03-30T12:45:37.001Z,12.57
2019-03-30T12:48:09.181Z,14.23
2019-03-30T12:50:44.085Z,13.23
2019-03-30T12:53:18.064Z,13.90
2019-03-30T12:55:50.176Z,14.43
2019-03-30T12:58:23.463Z,16.30
2019-03-30T13:00:55.731Z,13.60
2019-03-30T13:03:28.107Z,14.53
2019-03-30T13:06:00.109Z,15.70
2019-03-30T13:08:32.888Z,15.73
2019-03-30T13:11:05.455Z,14.93
2019-03-30T13:13:37.809Z,16.23
2019-03-30T13:16:10.278Z,16.80
2019-03-30T13:18:42.596Z,15.77
2019-03-30T13:21:19.853Z,14.97
2019-03-30T13:23:52.075Z,17.93
2019-03-30T13:26:24.276Z,13.53
2019-03-30T13:28:58.063Z,14.23
2019-03-30T13:31:30.451Z,15.57
2019-03-30T13:34:11.989Z,14.17
2019-03-30T13:36:45.547Z,13.93
2019-03-30T13:39:17.719Z,15.43
2019-03-30T13:41:50.091Z,14.30
2019-03-30T13:44:22.399Z,16.70
2019-03-30T13:46:54.825Z,15.10
2019-03-30T13:49:29.660Z,13.73
2019-03-30T13:52:01.033Z,14.73
2019-03-30T13:54:33.351Z,13.80
2019-03-30T13:57:05.655Z,14.07
2019-03-30T13:59:38.926Z,13.07
2019-03-30T14:02:12.277Z,14.93
2019-03-30T14:04:44.520Z,14.43
2019-03-30T14:07:16.671Z,13.10
2019-03-30T14:09:52.043Z,13.93
2019-03-30T14:12:24.454Z,13.67
2019-03-30T14:14:56.517Z,14.47
2019-03-30T14:17:31.881Z,15.07
2019-03-30T14:20:04.501Z,14.20
2019-03-30T14:22:36.961Z,13.30
2019-03-30T14:25:09.327Z,13.03
2019-03-30T14:27:44.328Z,13.87
2019-03-30T14:30:18.374Z,14.10
2019-03-30T14:32:50.525Z,13.67
2019-03-30T14:35:22.557Z,14.03
2019-03-30T14:37:54.763Z,15.33
2019-03-30T14:40:27.266Z,14.30
2019-03-30T14:43:03.675Z,13.87
2019-03-30T14:45:35.915Z,15.60
2019-03-30T14:48:10.463Z,12.97
2019-03-30T14:50:42.588Z,13.80
2019-03-30T14:53:18.563Z,14.43
2019-03-30T14:55:50.671Z,15.87
2019-03-30T14:58:22.806Z,15.13
2019-03-30T15:00:59.072Z,13.40
2019-03-30T15:03:31.534Z,14.13
2019-03-30T15:06:06.863Z,12.13
2019-03-30T15:08:37.339Z,13.83
2019-03-30T15:11:09.369Z,12.13
2019-03-30T15:13:41.519Z,13.73
2019-03-30T15:16:16.514Z,13.20
2019-03-30T15:18:51.467Z,11.37
2019-03-30T15:21:23.597Z,11.30
2019-03-30T15:23:56.884Z,12.63
2019-03-30T15:26:29.298Z,11.30
2019-03-30T15:29:01.311Z,11.77
2019-03-30T15:31:33.455Z,12.23
2019-03-30T15:34:05.512Z,13.07
2019-03-30T15:36:37.694Z,12.43
2019-03-30T15:39:10.871Z,12.30
2019-03-30T15:41:45.301Z,11.67
2019-03-30T15:44:17.367Z,11.73
2019-03-30T15:46:50.542Z,11.97
2019-03-30T15:49:22.685Z,12.50
2019-03-30T15:51:58.156Z,11.80
2019-03-30T15:54:37.291Z,12.07
2019-03-30T15:57:14.609Z,10.80
2019-03-30T15:59:46.813Z,13.40
2019-03-30T16:02:19.094Z,11.83
2019-03-30T16:04:51.368Z,12.10
2019-03-30T16:07:23.614Z,12.00
2019-03-30T16:09:57.407Z,12.23
2019-03-30T16:12:29.895Z,11.13
2019-03-30T16:15:02.156Z,11.20
2019-03-30T16:17:34.422Z,11.57
2019-03-30T16:20:06.826Z,11.40
2019-03-30T16:22:40.067Z,9.97
2019-03-30T16:25:12.594Z,11.10
2019-03-30T16:27:44.715Z,10.27
2019-03-30T16:30:18.146Z,10.43
2019-03-30T16:32:50.298Z,10.27
2019-03-30T16:35:22.454Z,9.30
2019-03-30T16:37:58.653Z,11.00
2019-03-30T16:40:32.432Z,9.87
2019-03-30T16:43:08.163Z,10.03
2019-03-30T16:45:38.406Z,10.60
2019-03-30T16:48:10.656Z,11.37
2019-03-30T16:50:43.051Z,10.93
2019-03-30T16:53:15.246Z,10.00
2019-03-30T16:55:47.593Z,11.67
2019-03-30T16:58:21.543Z,11.00
2019-03-30T17:00:59.606Z,10.37
2019-03-30T17:03:35.813Z,11.27
2019-03-30T17:06:08.099Z,11.57
2019-03-30T17:08:40.338Z,11.53
2019-03-30T17:11:12.551Z,13.67
2019-03-30T17:13:49.219Z,12.73
2019-03-30T17:16:21.474Z,11.90
2019-03-30T17:18:53.473Z,12.80
2019-03-30T17:21:25.527Z,13.10
2019-03-30T17:23:57.580Z,15.67
2019-03-30T17:26:30.896Z,13.40
2019-03-30T17:29:03.189Z,15.37
2019-03-30T17:31:35.331Z,16.40
2019-03-30T17:34:07.622Z,17.17
2019-03-30T17:36:40.815Z,17.37
2019-03-30T17:39:14.205Z,17.53
2019-03-30T17:41:46.336Z,18.83
2019-03-30T17:44:18.328Z,16.30
2019-03-30T17:46:50.286Z,18.97
2019-03-30T17:49:23.842Z,18.07
2019-03-30T17:51:55.910Z,19.20
2019-03-30T17:54:30.376Z,16.83
2019-03-30T17:57:02.632Z,20.17
2019-03-30T17:59:34.839Z,18.60
2019-03-30T18:02:06.969Z,19.20
2019-03-30T18:04:40.021Z,19.33
2019-03-30T18:07:13.676Z,22.23
2019-03-30T18:09:45.749Z,20.60
2019-03-30T18:12:20.419Z,23.23
2019-03-30T18:14:51.369Z,23.00
2019-03-30T18:17:23.393Z,21.83
2019-03-30T18:19:55.591Z,21.83
2019-03-30T18:22:27.639Z,19.60
2019-03-30T18:24:59.726Z,21.80
2019-03-30T18:27:33.322Z,24.90
2019-03-30T18:30:08.668Z,26.40
2019-03-30T18:32:41.102Z,30.07
2019-03-30T18:35:14.722Z,35.20
2019-03-30T18:37:46.719Z,31.13
2019-03-30T18:40:30.580Z,27.47
2019-03-30T18:43:04.183Z,23.67
2019-03-30T18:45:36.126Z,22.20
2019-03-30T18:48:18.519Z,25.73
2019-03-30T18:50:50.543Z,26.87
2019-03-30T18:53:23.945Z,37.27
2019-03-30T18:55:57.395Z,31.87
2019-03-30T18:58:41.465Z,28.50
2019-03-30T19:01:04.998Z,30.13
2019-03-30T19:03:37.069Z,32.13
2019-03-30T19:06:10.927Z,31.07
2019-03-30T19:08:43.074Z,28.97
2019-03-30T19:11:15.346Z,28.47
2019-03-30T19:13:47.449Z,29.83
2019-03-30T19:16:19.510Z,30.70
2019-03-30T19:18:51.886Z,28.90
2019-03-30T19:21:25.750Z,28.60
2019-03-30T19:23:58.010Z,28.67
2019-03-30T19:26:30.164Z,32.00
2019-03-30T19:29:06.410Z,30.73
2019-03-30T19:31:38.763Z,27.63
2019-03-30T19:34:10.902Z,29.60
2019-03-30T19:36:44.428Z,29.60
2019-03-30T19:39:16.385Z,30.67
2019-03-30T19:41:50.488Z,32.03
2019-03-30T19:44:22.665Z,39.03
2019-03-30T19:46:54.791Z,36.50
2019-03-30T19:49:30.359Z,38.33
2019-03-30T19:52:01.175Z,34.97
2019-03-30T19:54:33.529Z,36.03
2019-03-30T19:57:05.502Z,35.90
2019-03-30T19:59:37.570Z,46.50
2019-03-30T20:02:09.642Z,69.50
2019-03-30T20:04:41.742Z,72.83
2019-03-30T20:07:16.696Z,85.17
2019-03-30T20:09:49.065Z,84.20
2019-03-30T20:12:31.232Z,71.80
2019-03-30T20:15:11.485Z,80.60
2019-03-30T20:17:43.895Z,76.53
2019-03-30T20:20:16.019Z,81.17
2019-03-30T20:22:49.101Z,78.33
2019-03-30T20:25:21.122Z,78.83
2019-03-30T20:27:53.118Z,75.23
2019-03-30T20:30:25.542Z,69.23
2019-03-30T20:32:59.016Z,69.60
2019-03-30T20:35:33.990Z,69.80
2019-03-30T20:38:06.203Z,68.23
2019-03-30T20:40:38.324Z,66.87
2019-03-30T20:43:13.474Z,65.00
2019-03-30T20:45:45.413Z,55.53
2019-03-30T20:48:20.990Z,60.43
2019-03-30T20:50:53.122Z,72.20
2019-03-30T20:53:25.527Z,79.13
2019-03-30T20:55:58.158Z,84.07
2019-03-30T20:58:30.219Z,97.20
2019-03-30T21:01:05.031Z,91.83
2019-03-30T21:03:37.058Z,85.93
2019-03-30T21:06:08.994Z,75.80
2019-03-30T21:08:41.038Z,80.17
2019-03-30T21:11:13.043Z,77.13
2019-03-30T21:13:45.078Z,69.53
2019-03-30T21:16:18.216Z,68.50
2019-03-30T21:18:57.294Z,73.40
2019-03-30T21:21:30.834Z,67.30
2019-03-30T21:24:02.952Z,60.63
2019-03-30T21:26:36.658Z,61.03
2019-03-30T21:29:09.902Z,56.40
2019-03-30T21:31:42.014Z,62.23
2019-03-30T21:34:14.072Z,55.77
2019-03-30T21:36:46.208Z,57.60
2019-03-30T21:39:18.252Z,56.17
2019-03-30T21:41:50.618Z,64.90
2019-03-30T21:44:22.709Z,63.67
2019-03-30T21:46:54.757Z,55.10
2019-03-30T21:49:26.830Z,56.03
2019-03-30T21:51:58.835Z,53.20
2019-03-30T21:54:30.874Z,55.43
2019-03-30T21:57:02.898Z,50.17
2019-03-30T21:59:34.902Z,50.70
2019-03-30T22:02:09.333Z,49.93
2019-03-30T22:04:41.495Z,45.87
2019-03-30T22:07:17.959Z,49.63
2019-03-30T22:09:49.980Z,49.77
2019-03-30T22:12:22.379Z,47.80
2019-03-30T22:14:55.907Z,49.27
2019-03-30T22:17:27.922Z,42.17
2019-03-30T22:20:00.992Z,44.17
2019-03-30T22:22:33.063Z,44.37
2019-03-30T22:25:08.801Z,44.20
2019-03-30T22:27:40.847Z,43.30
2019-03-30T22:30:24.204Z,44.50
2019-03-30T22:32:48.074Z,42.57
2019-03-30T22:35:23.499Z,42.10
2019-03-30T22:37:55.529Z,41.23
2019-03-30T22:40:27.477Z,43.73
2019-03-30T22:42:59.538Z,46.80
2019-03-30T22:45:32.946Z,45.43
2019-03-30T22:48:05.020Z,41.97
2019-03-30T22:50:42.510Z,43.57
2019-03-30T22:53:14.778Z,40.23
2019-03-30T22:55:46.785Z,36.67
2019-03-30T22:58:18.842Z,37.60
2019-03-30T23:01:00.341Z,37.10
2019-03-30T23:03:32.649Z,34.03
2019-03-30T23:06:04.800Z,36.53
2019-03-30T23:08:36.758Z,37.63
2019-03-30T23:11:08.782Z,34.87
2019-03-30T23:13:40.727Z,36.43
2019-03-30T23:16:14.705Z,39.47
2019-03-30T23:18:46.710Z,33.17
2019-03-30T23:21:18.691Z,35.50
2019-03-30T23:23:50.687Z,36.50
2019-03-30T23:26:22.689Z,35.13
2019-03-30T23:28:54.792Z,33.33
2019-03-30T23:31:27.011Z,34.37
2019-03-30T23:33:59.033Z,38.00
2019-03-30T23:36:31.086Z,36.87
2019-03-30T23:39:03.860Z,35.70
2019-03-30T23:41:35.917Z,36.40
2019-03-30T23:44:07.896Z,34.53
2019-03-30T23:46:39.853Z,37.17
2019-03-30T23:49:12.182Z,39.37
2019-03-30T23:51:44.250Z,41.40
2019-03-30T23:54:17.339Z,39.50
2019-03-30T23:56:49.358Z,42.27
2019-03-30T23:59:21.394Z,43.93
